createdAt,value
2022-11-29T00:01:26.081Z,11.23
2022-11-29T00:03:53.120Z,10.57
2022-11-29T00:06:21.568Z,12.75
2022-11-29T00:08:48.523Z,15.57
2022-11-29T00:11:36.493Z,16.40
2022-11-29T00:14:03.445Z,15.27
2022-11-29T00:16:30.589Z,14.68
2022-11-29T00:18:57.523Z,15.13
2022-11-29T00:21:24.451Z,13.90
2022-11-29T00:23:51.444Z,13.60
2022-11-29T00:26:18.397Z,14.73
2022-11-29T00:28:45.295Z,15.93
2022-11-29T00:31:19.310Z,14.50
2022-11-29T00:33:46.349Z,15.45
2022-11-29T00:36:13.302Z,15.18
2022-11-29T00:38:40.489Z,13.93
2022-11-29T00:41:07.837Z,15.02
2022-11-29T00:43:34.804Z,14.90
2022-11-29T00:46:01.961Z,15.25
2022-11-29T00:48:28.923Z,14.30
2022-11-29T00:50:55.774Z,14.55
2022-11-29T00:53:22.687Z,14.45
2022-11-29T00:55:50.181Z,14.15
2022-11-29T00:58:17.316Z,15.10
2022-11-29T01:00:44.460Z,14.30
2022-11-29T01:03:11.527Z,14.35
2022-11-29T01:05:38.412Z,15.13
2022-11-29T01:08:05.559Z,14.13
2022-11-29T01:10:32.660Z,14.20
2022-11-29T01:12:59.600Z,14.50
2022-11-29T01:15:26.693Z,14.45
2022-11-29T01:17:53.800Z,13.80
2022-11-29T01:20:20.918Z,14.50
2022-11-29T01:22:47.782Z,14.23
2022-11-29T01:25:14.649Z,14.18
2022-11-29T01:27:41.719Z,13.10
2022-11-29T01:30:09.269Z,13.25
2022-11-29T01:32:36.525Z,12.80
2022-11-29T01:35:04.420Z,13.63
2022-11-29T01:37:31.302Z,13.55
2022-11-29T01:39:58.171Z,13.32
2022-11-29T01:42:25.235Z,13.25
2022-11-29T01:45:27.898Z,12.43
2022-11-29T01:47:56.264Z,12.98
2022-11-29T01:50:23.157Z,13.45
2022-11-29T01:52:50.049Z,13.70
2022-11-29T01:55:17.074Z,13.25
2022-11-29T01:57:44.463Z,13.95
2022-11-29T02:00:13.825Z,13.40
2022-11-29T02:02:45.610Z,12.80
2022-11-29T02:07:40.096Z,14.00
2022-11-29T02:10:07.691Z,14.65
2022-11-29T02:13:05.089Z,14.98
2022-11-29T02:15:55.298Z,15.50
2022-11-29T02:18:39.287Z,15.65
2022-11-29T02:21:18.225Z,16.20
2022-11-29T02:24:16.524Z,17.25
2022-11-29T02:26:52.778Z,15.50
2022-11-29T02:29:46.465Z,15.63
2022-11-29T02:32:41.557Z,14.45
2022-11-29T02:35:43.492Z,15.43
2022-11-29T02:38:17.400Z,15.90
2022-11-29T02:41:00.396Z,16.20
2022-11-29T02:43:48.258Z,17.13
2022-11-29T02:46:37.332Z,18.90
2022-11-29T02:49:38.423Z,16.65
2022-11-29T02:52:07.909Z,18.48
2022-11-29T02:54:37.789Z,18.02
2022-11-29T02:57:24.418Z,18.27
2022-11-29T03:00:06.772Z,17.30
2022-11-29T03:02:49.741Z,16.83
2022-11-29T03:05:37.071Z,17.00
2022-11-29T03:08:15.286Z,15.25
2022-11-29T03:11:11.558Z,15.98
2022-11-29T03:13:53.828Z,17.55
2022-11-29T03:16:42.977Z,15.75
2022-11-29T03:19:16.321Z,15.07
2022-11-29T03:21:52.639Z,16.08
2022-11-29T03:24:24.148Z,13.88
2022-11-29T03:27:03.707Z,13.75
2022-11-29T03:29:36.264Z,14.23
2022-11-29T03:32:23.231Z,14.10
2022-11-29T03:35:04.366Z,14.13
2022-11-29T03:37:50.254Z,15.33
2022-11-29T03:40:31.422Z,15.88
2022-11-29T03:43:21.418Z,16.27
2022-11-29T03:45:55.508Z,16.38
2022-11-29T03:48:27.060Z,16.60
2022-11-29T03:51:08.419Z,16.88
2022-11-29T03:53:47.275Z,17.80
2022-11-29T03:56:28.162Z,17.55
2022-11-29T03:59:07.572Z,17.58
2022-11-29T04:02:11.506Z,18.30
2022-11-29T04:05:09.183Z,18.83
2022-11-29T04:07:44.965Z,16.42
2022-11-29T04:10:18.110Z,16.77
2022-11-29T04:13:09.971Z,17.23
2022-11-29T04:15:50.206Z,18.90
2022-11-29T04:18:47.794Z,17.77
2022-11-29T04:21:34.955Z,17.50
2022-11-29T04:24:23.534Z,16.77
2022-11-29T04:27:02.237Z,17.63
2022-11-29T04:29:37.132Z,17.50
2022-11-29T04:32:41.236Z,17.73
2022-11-29T04:35:23.564Z,17.65
2022-11-29T04:38:05.563Z,18.08
2022-11-29T04:43:11.439Z,17.90
2022-11-29T04:45:47.177Z,17.52
2022-11-29T04:48:42.054Z,17.88
2022-11-29T04:51:41.729Z,18.13
2022-11-29T04:54:47.009Z,17.50
2022-11-29T04:57:32.878Z,17.75
2022-11-29T05:00:09.307Z,18.00
2022-11-29T05:02:57.557Z,16.90
2022-11-29T05:05:35.773Z,16.33
2022-11-29T05:08:26.290Z,14.30
2022-11-29T05:11:26.339Z,12.85
2022-11-29T05:14:14.828Z,11.60
2022-11-29T05:17:13.374Z,12.82
2022-11-29T05:19:56.740Z,12.43
2022-11-29T05:22:28.329Z,13.18
2022-11-29T05:25:19.449Z,12.00
2022-11-29T05:28:09.801Z,14.50
2022-11-29T05:31:07.227Z,14.48
2022-11-29T05:33:53.980Z,14.88
2022-11-29T05:36:24.005Z,14.85
2022-11-29T05:39:14.394Z,14.38
2022-11-29T05:41:48.422Z,14.48
2022-11-29T05:44:35.759Z,13.57
2022-11-29T05:47:06.819Z,15.95
2022-11-29T05:49:55.485Z,14.30
2022-11-29T05:52:45.267Z,13.93
2022-11-29T05:55:15.286Z,13.73
2022-11-29T05:58:00.351Z,14.55
2022-11-29T06:00:54.134Z,14.40
2022-11-29T06:03:39.536Z,14.10
2022-11-29T06:06:30.661Z,14.38
2022-11-29T06:09:06.696Z,13.13
2022-11-29T06:11:37.757Z,12.65
2022-11-29T06:14:28.106Z,13.07
2022-11-29T06:17:01.997Z,12.45
2022-11-29T06:19:59.998Z,12.88
2022-11-29T06:22:57.127Z,12.90
2022-11-29T06:25:47.390Z,13.80
2022-11-29T06:28:27.054Z,13.85
2022-11-29T06:31:18.758Z,14.73
2022-11-29T06:33:57.991Z,13.73
2022-11-29T06:36:52.278Z,14.75
2022-11-29T06:39:19.436Z,13.55
2022-11-29T06:41:47.172Z,14.32
2022-11-29T06:44:14.479Z,14.68
2022-11-29T06:46:41.458Z,14.18
2022-11-29T06:49:27.554Z,14.80
2022-11-29T06:52:12.413Z,14.50
2022-11-29T06:54:48.686Z,13.98
2022-11-29T06:57:37.177Z,14.55
2022-11-29T07:00:16.395Z,14.00
2022-11-29T07:02:55.802Z,15.07
2022-11-29T07:05:27.995Z,15.30
2022-11-29T07:07:57.263Z,15.50
2022-11-29T07:10:24.668Z,15.43
2022-11-29T07:12:51.759Z,15.05
2022-11-29T07:15:21.041Z,14.82
2022-11-29T07:18:00.032Z,15.23
2022-11-29T07:20:46.391Z,15.07
2022-11-29T07:23:51.177Z,13.57
2022-11-29T07:26:36.828Z,14.15
2022-11-29T07:29:40.884Z,14.38
2022-11-29T07:32:17.421Z,15.07
2022-11-29T07:35:02.093Z,15.13
2022-11-29T07:37:37.808Z,14.48
2022-11-29T07:40:21.943Z,14.75
2022-11-29T07:43:07.777Z,16.15
2022-11-29T07:45:37.450Z,16.13
2022-11-29T07:48:04.817Z,16.52
2022-11-29T07:50:31.764Z,14.10
2022-11-29T07:52:59.496Z,15.65
2022-11-29T07:55:26.674Z,15.77
2022-11-29T07:57:53.692Z,14.00
2022-11-29T08:00:20.860Z,14.63
2022-11-29T08:02:48.241Z,14.40
2022-11-29T08:05:15.542Z,14.55
2022-11-29T08:07:43.074Z,14.50
2022-11-29T08:10:15.053Z,14.45
2022-11-29T08:15:09.817Z,14.25
2022-11-29T08:17:38.245Z,14.23
2022-11-29T08:20:05.932Z,15.95
2022-11-29T08:22:32.876Z,15.27
2022-11-29T08:25:00.139Z,16.02
2022-11-29T08:27:27.174Z,15.68
2022-11-29T08:29:54.032Z,15.43
2022-11-29T08:32:20.914Z,15.15
2022-11-29T08:34:48.031Z,14.73
2022-11-29T08:37:15.081Z,14.57
2022-11-29T08:39:41.974Z,15.93
2022-11-29T08:42:08.883Z,15.30
2022-11-29T08:44:35.812Z,15.30
2022-11-29T08:47:20.982Z,15.80
2022-11-29T08:50:02.753Z,15.18
2022-11-29T08:52:48.903Z,15.23
2022-11-29T08:55:16.813Z,15.02
2022-11-29T08:57:43.778Z,15.27
2022-11-29T09:00:11.550Z,15.15
2022-11-29T09:02:38.735Z,13.52
2022-11-29T09:05:06.752Z,13.93
2022-11-29T09:07:33.872Z,13.05
2022-11-29T09:10:05.974Z,13.65
2022-11-29T09:12:33.160Z,13.63
2022-11-29T09:15:00.156Z,14.00
2022-11-29T09:17:29.260Z,12.90
2022-11-29T09:19:56.508Z,13.60
2022-11-29T09:22:25.188Z,13.40
2022-11-29T09:24:52.982Z,11.73
2022-11-29T09:27:22.778Z,12.63
2022-11-29T09:29:50.142Z,12.35
2022-11-29T09:32:17.114Z,12.40
2022-11-29T09:34:44.420Z,11.82
2022-11-29T09:37:11.491Z,11.23
2022-11-29T09:39:40.229Z,10.23
2022-11-29T09:42:11.110Z,10.63
2022-11-29T09:44:59.808Z,10.40
2022-11-29T09:47:33.155Z,9.93
2022-11-29T09:50:21.988Z,10.05
2022-11-29T09:53:12.962Z,9.48
2022-11-29T09:55:43.140Z,9.82
2022-11-29T09:58:13.672Z,9.98
2022-11-29T10:00:58.702Z,9.27
2022-11-29T10:03:29.577Z,9.15
2022-11-29T10:06:03.000Z,9.07
2022-11-29T10:09:00.054Z,10.35
2022-11-29T10:11:40.288Z,8.68
2022-11-29T10:14:18.368Z,7.75
2022-11-29T10:16:55.448Z,9.10
2022-11-29T10:19:36.747Z,8.27
2022-11-29T10:22:05.204Z,9.20
2022-11-29T10:24:32.767Z,9.40
2022-11-29T10:27:00.238Z,10.15
2022-11-29T10:29:28.059Z,9.90
2022-11-29T10:31:57.003Z,9.30
2022-11-29T10:34:25.525Z,9.23
2022-11-29T10:36:59.896Z,9.50
2022-11-29T10:39:40.457Z,9.00
2022-11-29T10:42:38.500Z,8.27
2022-11-29T10:45:27.351Z,8.20
2022-11-29T10:47:56.288Z,8.45
2022-11-29T10:50:27.507Z,8.30
2022-11-29T10:53:14.714Z,8.80
2022-11-29T10:55:50.633Z,8.90
2022-11-29T10:58:28.429Z,10.13
2022-11-29T11:01:07.013Z,10.35
2022-11-29T11:03:56.369Z,10.77
2022-11-29T11:06:28.108Z,10.38
2022-11-29T11:09:11.661Z,9.75
2022-11-29T11:11:38.611Z,9.77
2022-11-29T11:14:33.187Z,9.85
2022-11-29T11:17:26.543Z,12.25
2022-11-29T11:20:08.918Z,11.48
2022-11-29T11:22:36.192Z,10.70
2022-11-29T11:25:27.267Z,11.27
2022-11-29T11:27:54.258Z,11.43
2022-11-29T11:30:27.484Z,12.13
2022-11-29T11:33:18.819Z,12.60
2022-11-29T11:36:07.889Z,13.65
2022-11-29T11:38:39.142Z,14.70
2022-11-29T11:41:51.894Z,15.30
2022-11-29T11:44:48.489Z,15.20
2022-11-29T11:47:22.655Z,15.63
2022-11-29T11:50:05.070Z,15.93
2022-11-29T11:53:13.026Z,15.60
2022-11-29T11:55:44.082Z,16.08
2022-11-29T11:58:17.824Z,16.23
2022-11-29T12:01:04.390Z,16.98
2022-11-29T12:03:52.861Z,16.30
2022-11-29T12:06:35.444Z,17.00
2022-11-29T12:09:18.689Z,15.68
2022-11-29T12:12:00.560Z,14.25
2022-11-29T12:14:49.616Z,15.00
2022-11-29T12:17:28.494Z,15.57
2022-11-29T12:20:24.188Z,15.38
2022-11-29T12:23:04.138Z,14.65
2022-11-29T12:25:50.830Z,14.75
2022-11-29T12:28:20.886Z,14.27
2022-11-29T12:31:06.542Z,14.85
2022-11-29T12:33:43.702Z,14.75
2022-11-29T12:36:14.965Z,14.98
2022-11-29T12:39:00.158Z,14.50
2022-11-29T12:41:31.058Z,13.75
2022-11-29T12:44:19.825Z,14.65
2022-11-29T12:47:34.189Z,14.32
2022-11-29T12:49:50.649Z,14.52
2022-11-29T12:52:42.569Z,15.10
2022-11-29T12:55:33.617Z,14.73
2022-11-29T12:58:33.158Z,14.85
2022-11-29T13:01:20.142Z,13.85
2022-11-29T13:04:09.392Z,14.18
2022-11-29T13:07:00.791Z,13.55
2022-11-29T13:09:33.718Z,12.38
2022-11-29T13:12:29.044Z,12.45
2022-11-29T13:15:01.411Z,13.30
2022-11-29T13:17:34.309Z,12.13
2022-11-29T13:20:29.728Z,11.98
2022-11-29T13:23:16.756Z,13.43
2022-11-29T13:25:45.683Z,12.05
2022-11-29T13:28:15.581Z,12.43
2022-11-29T13:30:42.531Z,13.95
2022-11-29T13:33:16.358Z,12.82
2022-11-29T13:36:06.136Z,13.63
2022-11-29T13:38:42.833Z,13.23
2022-11-29T13:41:28.022Z,14.40
2022-11-29T13:44:13.400Z,14.02
2022-11-29T13:47:07.535Z,14.27
2022-11-29T13:49:54.664Z,14.50
2022-11-29T13:52:44.195Z,14.13
2022-11-29T13:55:11.708Z,14.10
2022-11-29T13:58:16.457Z,14.10
2022-11-29T14:00:44.183Z,13.73
2022-11-29T14:03:23.131Z,13.20
2022-11-29T14:05:51.360Z,13.02
2022-11-29T14:08:25.866Z,12.57
2022-11-29T14:10:54.646Z,12.52
2022-11-29T14:13:22.999Z,12.23
2022-11-29T14:15:55.564Z,11.13
2022-11-29T14:18:37.907Z,10.15
2022-11-29T14:21:05.000Z,10.68
2022-11-29T14:23:47.659Z,9.00
2022-11-29T14:26:28.625Z,9.93
2022-11-29T14:28:57.085Z,10.18
2022-11-29T14:31:52.372Z,11.57
2022-11-29T14:34:23.448Z,10.73
2022-11-29T14:37:03.353Z,10.07
2022-11-29T14:39:34.485Z,10.18
2022-11-29T14:42:01.384Z,11.02
2022-11-29T14:44:32.187Z,10.80
2022-11-29T14:47:33.039Z,11.27
2022-11-29T14:50:01.171Z,11.15
2022-11-29T14:52:38.810Z,10.25
2022-11-29T14:55:14.984Z,10.90
2022-11-29T14:57:50.857Z,10.10
2022-11-29T15:00:24.892Z,10.82
2022-11-29T15:02:54.406Z,10.20
2022-11-29T15:05:41.700Z,9.80
2022-11-29T15:08:20.359Z,9.48
2022-11-29T15:10:58.803Z,9.00
2022-11-29T15:13:39.484Z,10.32
2022-11-29T15:16:09.742Z,9.77
2022-11-29T15:18:39.523Z,9.68
2022-11-29T15:21:32.269Z,9.77
2022-11-29T15:24:05.309Z,9.35
2022-11-29T15:26:32.666Z,9.77
2022-11-29T15:29:15.640Z,10.43
2022-11-29T15:31:43.023Z,9.13
2022-11-29T15:34:28.253Z,9.77
2022-11-29T15:36:55.143Z,9.98
2022-11-29T15:39:27.434Z,10.02
2022-11-29T15:42:02.363Z,9.90
2022-11-29T15:44:32.152Z,9.70
2022-11-29T15:47:17.711Z,11.23
2022-11-29T15:49:45.104Z,9.35
2022-11-29T15:52:20.366Z,10.18
2022-11-29T15:54:50.439Z,9.75
2022-11-29T15:57:27.812Z,10.05
2022-11-29T15:59:56.951Z,11.10
2022-11-29T16:02:31.674Z,10.18
2022-11-29T16:05:01.934Z,11.65
2022-11-29T16:07:32.362Z,10.98
2022-11-29T16:10:04.233Z,11.30
2022-11-29T16:12:31.108Z,10.57
2022-11-29T16:14:59.508Z,11.63
2022-11-29T16:17:34.190Z,10.68
2022-11-29T16:20:19.404Z,11.57
2022-11-29T16:22:46.285Z,11.93
2022-11-29T16:25:19.804Z,11.98
2022-11-29T16:27:46.885Z,12.05
2022-11-29T16:30:21.080Z,11.93
2022-11-29T16:32:59.339Z,12.55
2022-11-29T16:35:33.973Z,11.80
2022-11-29T16:38:03.679Z,12.23
2022-11-29T16:40:32.100Z,12.25
2022-11-29T16:43:24.007Z,11.98
2022-11-29T16:46:33.652Z,12.57
2022-11-29T16:49:03.702Z,11.77
2022-11-29T16:51:39.911Z,12.45
2022-11-29T16:54:19.146Z,12.48
2022-11-29T16:56:46.038Z,12.77
2022-11-29T16:59:25.437Z,12.02
2022-11-29T17:01:54.065Z,12.00
2022-11-29T17:04:23.372Z,12.77
2022-11-29T17:06:54.919Z,12.35
2022-11-29T17:09:26.880Z,12.13
2022-11-29T17:14:21.413Z,12.75
2022-11-29T17:16:49.535Z,12.38
2022-11-29T17:19:16.672Z,13.45
2022-11-29T17:21:43.819Z,14.18
2022-11-29T17:24:13.388Z,14.38
2022-11-29T17:26:41.109Z,12.88
2022-11-29T17:29:08.144Z,13.70
2022-11-29T17:31:35.161Z,13.88
2022-11-29T17:34:02.334Z,13.68
2022-11-29T17:36:29.627Z,13.43
2022-11-29T17:38:56.975Z,13.00
2022-11-29T17:41:24.866Z,13.35
2022-11-29T17:43:52.217Z,14.70
2022-11-29T17:46:20.998Z,14.52
2022-11-29T17:48:48.333Z,13.77
2022-11-29T17:51:43.905Z,14.02
2022-11-29T17:54:04.649Z,14.00
2022-11-29T17:56:31.782Z,14.65
2022-11-29T17:59:00.411Z,14.85
2022-11-29T18:01:29.002Z,14.35
2022-11-29T18:03:57.607Z,14.38
2022-11-29T18:06:26.539Z,15.00
2022-11-29T18:08:55.348Z,14.27
2022-11-29T18:11:23.212Z,15.38
2022-11-29T18:13:50.263Z,13.98
2022-11-29T18:16:22.416Z,13.85
2022-11-29T18:18:54.707Z,15.18
2022-11-29T18:21:21.667Z,14.93
2022-11-29T18:23:48.801Z,14.35
2022-11-29T18:26:17.603Z,15.38
2022-11-29T18:28:44.760Z,15.85
2022-11-29T18:31:17.551Z,16.13
2022-11-29T18:33:45.620Z,15.85
2022-11-29T18:36:17.352Z,15.95
2022-11-29T18:38:44.676Z,15.07
2022-11-29T18:41:14.415Z,17.55
2022-11-29T18:43:41.367Z,14.60
2022-11-29T18:46:13.505Z,15.68
2022-11-29T18:48:40.922Z,17.10
2022-11-29T18:51:10.292Z,16.27
2022-11-29T18:53:37.749Z,15.98
2022-11-29T18:56:06.310Z,14.95
2022-11-29T18:58:33.627Z,16.20
2022-11-29T19:01:04.983Z,16.95
2022-11-29T19:03:36.582Z,16.38
2022-11-29T19:06:07.873Z,15.35
2022-11-29T19:08:34.763Z,16.85
2022-11-29T19:11:12.984Z,17.25
2022-11-29T19:13:40.159Z,16.27
2022-11-29T19:16:08.422Z,16.35
2022-11-29T19:18:35.565Z,16.55
2022-11-29T19:21:29.958Z,16.20
2022-11-29T19:23:58.448Z,17.63
2022-11-29T19:26:26.891Z,16.83
2022-11-29T19:28:53.927Z,17.73
2022-11-29T19:31:24.172Z,16.85
2022-11-29T19:33:52.553Z,16.00
2022-11-29T19:36:27.415Z,16.80
2022-11-29T19:38:54.781Z,18.25
2022-11-29T19:41:32.590Z,17.42
2022-11-29T19:44:00.876Z,18.83
2022-11-29T19:46:30.404Z,17.17
2022-11-29T19:48:58.129Z,19.05
2022-11-29T19:51:25.564Z,19.10
2022-11-29T19:53:53.777Z,18.08
2022-11-29T19:56:20.743Z,18.40
2022-11-29T19:58:48.674Z,17.63
2022-11-29T20:01:20.209Z,18.70
2022-11-29T20:03:47.205Z,17.02
2022-11-29T20:06:14.164Z,17.90
2022-11-29T20:08:41.172Z,17.88
2022-11-29T20:11:09.784Z,17.63
2022-11-29T20:13:40.383Z,17.83
2022-11-29T20:16:11.663Z,17.65
2022-11-29T20:18:40.168Z,18.33
2022-11-29T20:21:10.984Z,16.70
2022-11-29T20:23:38.459Z,19.17
2022-11-29T20:26:08.676Z,18.27
2022-11-29T20:28:35.998Z,18.63
2022-11-29T20:31:11.157Z,17.98
2022-11-29T20:33:38.680Z,17.02
2022-11-29T20:36:14.026Z,19.65
2022-11-29T20:38:44.495Z,19.92
2022-11-29T20:41:15.023Z,20.30
2022-11-29T20:43:50.876Z,18.33
2022-11-29T20:46:18.161Z,18.02
2022-11-29T20:48:45.329Z,18.77
2022-11-29T20:51:12.291Z,19.27
2022-11-29T20:53:43.100Z,18.85
2022-11-29T20:56:10.911Z,18.27
2022-11-29T20:58:38.027Z,18.35
2022-11-29T21:01:05.467Z,19.13
2022-11-29T21:03:32.686Z,18.42
2022-11-29T21:06:02.132Z,18.88
2022-11-29T21:08:29.086Z,18.90
2022-11-29T21:11:05.173Z,19.13
2022-11-29T21:13:32.438Z,18.30
2022-11-29T21:15:59.917Z,18.48
2022-11-29T21:18:28.251Z,18.90
2022-11-29T21:21:23.425Z,18.33
2022-11-29T21:23:59.590Z,17.95
2022-11-29T21:26:48.568Z,18.10
2022-11-29T21:29:17.327Z,16.98
2022-11-29T21:31:45.149Z,19.27
2022-11-29T21:34:12.156Z,17.85
2022-11-29T21:36:39.325Z,18.30
2022-11-29T21:39:06.515Z,18.42
2022-11-29T21:41:33.659Z,17.58
2022-11-29T21:44:08.321Z,18.83
2022-11-29T21:46:35.777Z,18.52
2022-11-29T21:49:02.815Z,19.10
2022-11-29T21:51:29.979Z,19.52
2022-11-29T21:53:56.881Z,19.92
2022-11-29T21:56:23.895Z,18.80
2022-11-29T21:58:50.820Z,18.65
2022-11-29T22:01:20.767Z,18.38
2022-11-29T22:03:47.819Z,17.52
2022-11-29T22:06:18.635Z,18.55
2022-11-29T22:08:45.563Z,21.40
2022-11-29T22:11:14.465Z,20.15
2022-11-29T22:14:03.817Z,19.02
2022-11-29T22:16:30.882Z,17.95
2022-11-29T22:19:00.357Z,18.67
2022-11-29T22:21:27.310Z,17.88
2022-11-29T22:23:57.243Z,19.33
2022-11-29T22:26:24.239Z,20.10
2022-11-29T22:28:51.229Z,20.98
2022-11-29T22:31:18.221Z,19.70
2022-11-29T22:33:45.173Z,21.08
2022-11-29T22:36:12.591Z,20.65
2022-11-29T22:38:39.919Z,20.13
2022-11-29T22:41:11.135Z,19.45
2022-11-29T22:43:38.289Z,19.67
2022-11-29T22:46:19.055Z,19.70
2022-11-29T22:48:46.671Z,19.63
2022-11-29T22:51:21.457Z,17.95
2022-11-29T22:53:53.086Z,18.80
2022-11-29T22:56:20.354Z,20.75
2022-11-29T22:58:47.473Z,19.75
2022-11-29T23:01:16.298Z,21.75
2022-11-29T23:03:44.908Z,20.90
2022-11-29T23:06:13.238Z,22.08
2022-11-29T23:08:41.102Z,20.20
2022-11-29T23:11:09.259Z,20.33
2022-11-29T23:13:37.316Z,20.65
2022-11-29T23:16:05.102Z,21.20
2022-11-29T23:18:32.230Z,20.45
2022-11-29T23:21:07.058Z,20.00
2022-11-29T23:23:34.152Z,23.50
2022-11-29T23:26:01.087Z,20.48
2022-11-29T23:28:28.432Z,21.40
2022-11-29T23:30:55.531Z,22.42
2022-11-29T23:33:23.380Z,21.95
2022-11-29T23:35:50.688Z,21.00
2022-11-29T23:38:18.063Z,22.42
2022-11-29T23:40:44.933Z,21.20
2022-11-29T23:43:12.907Z,19.98
2022-11-29T23:45:39.940Z,20.17
2022-11-29T23:48:06.938Z,21.63
2022-11-29T23:50:33.952Z,21.25
2022-11-29T23:53:00.878Z,22.63
2022-11-29T23:55:27.958Z,21.13
2022-11-29T23:57:54.841Z,21.10
